<?xml version="1.0" encoding="UTF-8" standalone="no" ?>
<gpx xmlns="http://www.topografix.com/GPX/1/1" xmlns:xsi="http://www.w3.org/2001/XMLSchema-instance" xsi:schemaLocation="http://www.topografix.com/GPX/1/1 http://www.topografix.com/GPX/1/1/gpx.xsd" version="1.1" creator="VisuGPX - https://www.visugpx.com">
  <metadata>
    <name>Randonnée du 10/05/2021 à 17:02</name>
  </metadata>
  <trk>
    <name><![CDATA[Randonnée du 10/05/2021 à 17:02]]></name>
    <trkseg>
      <trkpt lat="49.02872" lon="1.85278">
        <ele>48</ele>
        <time>2021-05-10T17:02:53+02:00</time>
      </trkpt>
      <trkpt lat="49.02892" lon="1.85308">
        <ele>47</ele>
        <time>2021-05-10T17:02:58+02:00</time>
      </trkpt>
      <trkpt lat="49.02893" lon="1.85328">
        <ele>47</ele>
        <time>2021-05-10T17:03:03+02:00</time>
      </trkpt>
      <trkpt lat="49.0292" lon="1.85325">
        <ele>46</ele>
        <time>2021-05-10T17:03:08+02:00</time>
      </trkpt>
      <trkpt lat="49.02928" lon="1.85334">
        <ele>47</ele>
        <time>2021-05-10T17:03:13+02:00</time>
      </trkpt>
      <trkpt lat="49.0296" lon="1.8537">
        <ele>52</ele>
        <time>2021-05-10T17:03:18+02:00</time>
      </trkpt>
      <trkpt lat="49.02982" lon="1.85417">
        <ele>57</ele>
        <time>2021-05-10T17:03:23+02:00</time>
      </trkpt>
      <trkpt lat="49.03001" lon="1.85455">
        <ele>59</ele>
        <time>2021-05-10T17:03:28+02:00</time>
      </trkpt>
      <trkpt lat="49.03019" lon="1.85518">
        <ele>60</ele>
        <time>2021-05-10T17:03:33+02:00</time>
      </trkpt>
      <trkpt lat="49.0307" lon="1.85562">
        <ele>68</ele>
        <time>2021-05-10T17:03:38+02:00</time>
      </trkpt>
      <trkpt lat="49.03138" lon="1.85626">
        <ele>77</ele>
        <time>2021-05-10T17:03:43+02:00</time>
      </trkpt>
      <trkpt lat="49.03167" lon="1.85644">
        <ele>80</ele>
        <time>2021-05-10T17:03:48+02:00</time>
      </trkpt>
      <trkpt lat="49.03236" lon="1.85666">
        <ele>81</ele>
        <time>2021-05-10T17:03:53+02:00</time>
      </trkpt>
      <trkpt lat="49.03238" lon="1.85757">
        <ele>80</ele>
        <time>2021-05-10T17:03:58+02:00</time>
      </trkpt>
      <trkpt lat="49.03242" lon="1.85843">
        <ele>80</ele>
        <time>2021-05-10T17:04:03+02:00</time>
      </trkpt>
      <trkpt lat="49.03239" lon="1.85907">
        <ele>79</ele>
        <time>2021-05-10T17:04:08+02:00</time>
      </trkpt>
      <trkpt lat="49.03231" lon="1.8601">
        <ele>76</ele>
        <time>2021-05-10T17:04:13+02:00</time>
      </trkpt>
      <trkpt lat="49.03216" lon="1.86099">
        <ele>72</ele>
        <time>2021-05-10T17:04:18+02:00</time>
      </trkpt>
      <trkpt lat="49.0321" lon="1.8618">
        <ele>67</ele>
        <time>2021-05-10T17:04:23+02:00</time>
      </trkpt>
      <trkpt lat="49.032" lon="1.86251">
        <ele>66</ele>
        <time>2021-05-10T17:04:28+02:00</time>
      </trkpt>
      <trkpt lat="49.0321" lon="1.86312">
        <ele>63</ele>
        <time>2021-05-10T17:04:33+02:00</time>
      </trkpt>
      <trkpt lat="49.03218" lon="1.8638">
        <ele>62</ele>
        <time>2021-05-10T17:04:38+02:00</time>
      </trkpt>
      <trkpt lat="49.03219" lon="1.86413">
        <ele>61</ele>
        <time>2021-05-10T17:04:43+02:00</time>
      </trkpt>
      <trkpt lat="49.03215" lon="1.86465">
        <ele>59</ele>
        <time>2021-05-10T17:04:48+02:00</time>
      </trkpt>
      <trkpt lat="49.03183" lon="1.86503">
        <ele>56</ele>
        <time>2021-05-10T17:04:53+02:00</time>
      </trkpt>
      <trkpt lat="49.03167" lon="1.86542">
        <ele>54</ele>
        <time>2021-05-10T17:04:58+02:00</time>
      </trkpt>
      <trkpt lat="49.0315" lon="1.8662">
        <ele>48</ele>
        <time>2021-05-10T17:05:03+02:00</time>
      </trkpt>
      <trkpt lat="49.03124" lon="1.86676">
        <ele>45</ele>
        <time>2021-05-10T17:05:08+02:00</time>
      </trkpt>
      <trkpt lat="49.03089" lon="1.86723">
        <ele>43</ele>
        <time>2021-05-10T17:05:13+02:00</time>
      </trkpt>
      <trkpt lat="49.03067" lon="1.86719">
        <ele>42</ele>
        <time>2021-05-10T17:05:18+02:00</time>
      </trkpt>
      <trkpt lat="49.02999" lon="1.8669">
        <ele>38</ele>
        <time>2021-05-10T17:05:23+02:00</time>
      </trkpt>
      <trkpt lat="49.02956" lon="1.86671">
        <ele>37</ele>
        <time>2021-05-10T17:05:28+02:00</time>
      </trkpt>
      <trkpt lat="49.02921" lon="1.86667">
        <ele>36</ele>
        <time>2021-05-10T17:05:33+02:00</time>
      </trkpt>
      <trkpt lat="49.02796" lon="1.86694">
        <ele>37</ele>
        <time>2021-05-10T17:05:38+02:00</time>
      </trkpt>
      <trkpt lat="49.02801" lon="1.86675">
        <ele>37</ele>
        <time>2021-05-10T17:05:43+02:00</time>
      </trkpt>
      <trkpt lat="49.02763" lon="1.86669">
        <ele>38</ele>
        <time>2021-05-10T17:05:48+02:00</time>
      </trkpt>
      <trkpt lat="49.02729" lon="1.86647">
        <ele>43</ele>
        <time>2021-05-10T17:05:53+02:00</time>
      </trkpt>
      <trkpt lat="49.0267" lon="1.86616">
        <ele>52</ele>
        <time>2021-05-10T17:05:58+02:00</time>
      </trkpt>
      <trkpt lat="49.02531" lon="1.86572">
        <ele>67</ele>
        <time>2021-05-10T17:06:03+02:00</time>
      </trkpt>
      <trkpt lat="49.02434" lon="1.86393">
        <ele>77</ele>
        <time>2021-05-10T17:06:08+02:00</time>
      </trkpt>
      <trkpt lat="49.02486" lon="1.86299">
        <ele>82</ele>
        <time>2021-05-10T17:06:13+02:00</time>
      </trkpt>
      <trkpt lat="49.02501" lon="1.86254">
        <ele>84</ele>
        <time>2021-05-10T17:06:18+02:00</time>
      </trkpt>
      <trkpt lat="49.02506" lon="1.86206">
        <ele>84</ele>
        <time>2021-05-10T17:06:23+02:00</time>
      </trkpt>
      <trkpt lat="49.02498" lon="1.8619">
        <ele>85</ele>
        <time>2021-05-10T17:06:28+02:00</time>
      </trkpt>
      <trkpt lat="49.02503" lon="1.86103">
        <ele>85</ele>
        <time>2021-05-10T17:06:33+02:00</time>
      </trkpt>
      <trkpt lat="49.025" lon="1.86001">
        <ele>87</ele>
        <time>2021-05-10T17:06:38+02:00</time>
      </trkpt>
      <trkpt lat="49.02488" lon="1.8599">
        <ele>88</ele>
        <time>2021-05-10T17:06:43+02:00</time>
      </trkpt>
      <trkpt lat="49.02383" lon="1.85984">
        <ele>94</ele>
        <time>2021-05-10T17:06:48+02:00</time>
      </trkpt>
      <trkpt lat="49.02372" lon="1.85964">
        <ele>95</ele>
        <time>2021-05-10T17:06:53+02:00</time>
      </trkpt>
      <trkpt lat="49.02357" lon="1.86048">
        <ele>93</ele>
        <time>2021-05-10T17:06:58+02:00</time>
      </trkpt>
      <trkpt lat="49.02324" lon="1.862">
        <ele>85</ele>
        <time>2021-05-10T17:07:03+02:00</time>
      </trkpt>
      <trkpt lat="49.02302" lon="1.8629">
        <ele>77</ele>
        <time>2021-05-10T17:07:08+02:00</time>
      </trkpt>
      <trkpt lat="49.02271" lon="1.86364">
        <ele>70</ele>
        <time>2021-05-10T17:07:13+02:00</time>
      </trkpt>
      <trkpt lat="49.02217" lon="1.86475">
        <ele>61</ele>
        <time>2021-05-10T17:07:18+02:00</time>
      </trkpt>
      <trkpt lat="49.0218" lon="1.86514">
        <ele>58</ele>
        <time>2021-05-10T17:07:23+02:00</time>
      </trkpt>
      <trkpt lat="49.02123" lon="1.86559">
        <ele>67</ele>
        <time>2021-05-10T17:07:28+02:00</time>
      </trkpt>
      <trkpt lat="49.02042" lon="1.86416">
        <ele>70</ele>
        <time>2021-05-10T17:07:33+02:00</time>
      </trkpt>
      <trkpt lat="49.02001" lon="1.86339">
        <ele>70</ele>
        <time>2021-05-10T17:07:38+02:00</time>
      </trkpt>
      <trkpt lat="49.01987" lon="1.86308">
        <ele>71</ele>
        <time>2021-05-10T17:07:43+02:00</time>
      </trkpt>
      <trkpt lat="49.01926" lon="1.86221">
        <ele>70</ele>
        <time>2021-05-10T17:07:48+02:00</time>
      </trkpt>
      <trkpt lat="49.01912" lon="1.86202">
        <ele>70</ele>
        <time>2021-05-10T17:07:53+02:00</time>
      </trkpt>
      <trkpt lat="49.01877" lon="1.86194">
        <ele>72</ele>
        <time>2021-05-10T17:07:58+02:00</time>
      </trkpt>
      <trkpt lat="49.01852" lon="1.86197">
        <ele>74</ele>
        <time>2021-05-10T17:08:03+02:00</time>
      </trkpt>
      <trkpt lat="49.01847" lon="1.86185">
        <ele>74</ele>
        <time>2021-05-10T17:08:08+02:00</time>
      </trkpt>
      <trkpt lat="49.01847" lon="1.8614">
        <ele>72</ele>
        <time>2021-05-10T17:08:13+02:00</time>
      </trkpt>
      <trkpt lat="49.01816" lon="1.86035">
        <ele>74</ele>
        <time>2021-05-10T17:08:18+02:00</time>
      </trkpt>
      <trkpt lat="49.01724" lon="1.86014">
        <ele>81</ele>
        <time>2021-05-10T17:08:23+02:00</time>
      </trkpt>
      <trkpt lat="49.01722" lon="1.86067">
        <ele>78</ele>
        <time>2021-05-10T17:08:28+02:00</time>
      </trkpt>
      <trkpt lat="49.01733" lon="1.86135">
        <ele>78</ele>
        <time>2021-05-10T17:08:33+02:00</time>
      </trkpt>
      <trkpt lat="49.01748" lon="1.86205">
        <ele>81</ele>
        <time>2021-05-10T17:08:38+02:00</time>
      </trkpt>
      <trkpt lat="49.01679" lon="1.86159">
        <ele>85</ele>
        <time>2021-05-10T17:08:43+02:00</time>
      </trkpt>
      <trkpt lat="49.01526" lon="1.86149">
        <ele>102</ele>
        <time>2021-05-10T17:08:48+02:00</time>
      </trkpt>
      <trkpt lat="49.01477" lon="1.8616">
        <ele>106</ele>
        <time>2021-05-10T17:08:53+02:00</time>
      </trkpt>
      <trkpt lat="49.01438" lon="1.86139">
        <ele>110</ele>
        <time>2021-05-10T17:08:58+02:00</time>
      </trkpt>
      <trkpt lat="49.01399" lon="1.86145">
        <ele>115</ele>
        <time>2021-05-10T17:09:03+02:00</time>
      </trkpt>
      <trkpt lat="49.01382" lon="1.85915">
        <ele>119</ele>
        <time>2021-05-10T17:09:08+02:00</time>
      </trkpt>
      <trkpt lat="49.01392" lon="1.85867">
        <ele>119</ele>
        <time>2021-05-10T17:09:13+02:00</time>
      </trkpt>
      <trkpt lat="49.01406" lon="1.8585">
        <ele>119</ele>
        <time>2021-05-10T17:09:18+02:00</time>
      </trkpt>
      <trkpt lat="49.01445" lon="1.85777">
        <ele>120</ele>
        <time>2021-05-10T17:09:23+02:00</time>
      </trkpt>
      <trkpt lat="49.01477" lon="1.85727">
        <ele>121</ele>
        <time>2021-05-10T17:09:28+02:00</time>
      </trkpt>
      <trkpt lat="49.01505" lon="1.85654">
        <ele>120</ele>
        <time>2021-05-10T17:09:33+02:00</time>
      </trkpt>
      <trkpt lat="49.01545" lon="1.85533">
        <ele>119</ele>
        <time>2021-05-10T17:09:38+02:00</time>
      </trkpt>
      <trkpt lat="49.0164" lon="1.85214">
        <ele>129</ele>
        <time>2021-05-10T17:09:43+02:00</time>
      </trkpt>
      <trkpt lat="49.01679" lon="1.85143">
        <ele>134</ele>
        <time>2021-05-10T17:09:48+02:00</time>
      </trkpt>
      <trkpt lat="49.01761" lon="1.84944">
        <ele>123</ele>
        <time>2021-05-10T17:09:53+02:00</time>
      </trkpt>
      <trkpt lat="49.01857" lon="1.84767">
        <ele>122</ele>
        <time>2021-05-10T17:09:58+02:00</time>
      </trkpt>
      <trkpt lat="49.01884" lon="1.84713">
        <ele>120</ele>
        <time>2021-05-10T17:10:03+02:00</time>
      </trkpt>
      <trkpt lat="49.01902" lon="1.84686">
        <ele>119</ele>
        <time>2021-05-10T17:10:08+02:00</time>
      </trkpt>
      <trkpt lat="49.01944" lon="1.84632">
        <ele>119</ele>
        <time>2021-05-10T17:10:13+02:00</time>
      </trkpt>
      <trkpt lat="49.01959" lon="1.84607">
        <ele>120</ele>
        <time>2021-05-10T17:10:18+02:00</time>
      </trkpt>
      <trkpt lat="49.01973" lon="1.84575">
        <ele>121</ele>
        <time>2021-05-10T17:10:23+02:00</time>
      </trkpt>
      <trkpt lat="49.01991" lon="1.84488">
        <ele>131</ele>
        <time>2021-05-10T17:10:28+02:00</time>
      </trkpt>
      <trkpt lat="49.02014" lon="1.84431">
        <ele>136</ele>
        <time>2021-05-10T17:10:33+02:00</time>
      </trkpt>
      <trkpt lat="49.02036" lon="1.84377">
        <ele>135</ele>
        <time>2021-05-10T17:10:38+02:00</time>
      </trkpt>
      <trkpt lat="49.02073" lon="1.84274">
        <ele>130</ele>
        <time>2021-05-10T17:10:43+02:00</time>
      </trkpt>
      <trkpt lat="49.02083" lon="1.84226">
        <ele>128</ele>
        <time>2021-05-10T17:10:48+02:00</time>
      </trkpt>
      <trkpt lat="49.02092" lon="1.84067">
        <ele>124</ele>
        <time>2021-05-10T17:10:53+02:00</time>
      </trkpt>
      <trkpt lat="49.02099" lon="1.83989">
        <ele>123</ele>
        <time>2021-05-10T17:10:58+02:00</time>
      </trkpt>
      <trkpt lat="49.02103" lon="1.83975">
        <ele>123</ele>
        <time>2021-05-10T17:11:03+02:00</time>
      </trkpt>
      <trkpt lat="49.02138" lon="1.83908">
        <ele>122</ele>
        <time>2021-05-10T17:11:08+02:00</time>
      </trkpt>
      <trkpt lat="49.02152" lon="1.83873">
        <ele>122</ele>
        <time>2021-05-10T17:11:13+02:00</time>
      </trkpt>
      <trkpt lat="49.02191" lon="1.8376">
        <ele>121</ele>
        <time>2021-05-10T17:11:18+02:00</time>
      </trkpt>
      <trkpt lat="49.02207" lon="1.83714">
        <ele>120</ele>
        <time>2021-05-10T17:11:23+02:00</time>
      </trkpt>
      <trkpt lat="49.02216" lon="1.8367">
        <ele>119</ele>
        <time>2021-05-10T17:11:28+02:00</time>
      </trkpt>
      <trkpt lat="49.02226" lon="1.83615">
        <ele>119</ele>
        <time>2021-05-10T17:11:33+02:00</time>
      </trkpt>
      <trkpt lat="49.02233" lon="1.8358">
        <ele>118</ele>
        <time>2021-05-10T17:11:38+02:00</time>
      </trkpt>
      <trkpt lat="49.02227" lon="1.83485">
        <ele>116</ele>
        <time>2021-05-10T17:11:43+02:00</time>
      </trkpt>
      <trkpt lat="49.02225" lon="1.83328">
        <ele>115</ele>
        <time>2021-05-10T17:11:48+02:00</time>
      </trkpt>
      <trkpt lat="49.02223" lon="1.83267">
        <ele>116</ele>
        <time>2021-05-10T17:11:53+02:00</time>
      </trkpt>
      <trkpt lat="49.02224" lon="1.83215">
        <ele>115</ele>
        <time>2021-05-10T17:11:58+02:00</time>
      </trkpt>
      <trkpt lat="49.02241" lon="1.83132">
        <ele>113</ele>
        <time>2021-05-10T17:12:03+02:00</time>
      </trkpt>
      <trkpt lat="49.02245" lon="1.83094">
        <ele>114</ele>
        <time>2021-05-10T17:12:08+02:00</time>
      </trkpt>
      <trkpt lat="49.02248" lon="1.83039">
        <ele>119</ele>
        <time>2021-05-10T17:12:13+02:00</time>
      </trkpt>
      <trkpt lat="49.02236" lon="1.82961">
        <ele>123</ele>
        <time>2021-05-10T17:12:18+02:00</time>
      </trkpt>
      <trkpt lat="49.02235" lon="1.82855">
        <ele>120</ele>
        <time>2021-05-10T17:12:23+02:00</time>
      </trkpt>
      <trkpt lat="49.02293" lon="1.82861">
        <ele>121</ele>
        <time>2021-05-10T17:12:28+02:00</time>
      </trkpt>
      <trkpt lat="49.02366" lon="1.82855">
        <ele>119</ele>
        <time>2021-05-10T17:12:33+02:00</time>
      </trkpt>
      <trkpt lat="49.02431" lon="1.82899">
        <ele>115</ele>
        <time>2021-05-10T17:12:38+02:00</time>
      </trkpt>
      <trkpt lat="49.02441" lon="1.82841">
        <ele>115</ele>
        <time>2021-05-10T17:12:43+02:00</time>
      </trkpt>
      <trkpt lat="49.02479" lon="1.82746">
        <ele>113</ele>
        <time>2021-05-10T17:12:48+02:00</time>
      </trkpt>
      <trkpt lat="49.02538" lon="1.82598">
        <ele>113</ele>
        <time>2021-05-10T17:12:53+02:00</time>
      </trkpt>
      <trkpt lat="49.02581" lon="1.82491">
        <ele>113</ele>
        <time>2021-05-10T17:12:58+02:00</time>
      </trkpt>
      <trkpt lat="49.02612" lon="1.82394">
        <ele>112</ele>
        <time>2021-05-10T17:13:03+02:00</time>
      </trkpt>
      <trkpt lat="49.02635" lon="1.82313">
        <ele>107</ele>
        <time>2021-05-10T17:13:08+02:00</time>
      </trkpt>
      <trkpt lat="49.02638" lon="1.82262">
        <ele>104</ele>
        <time>2021-05-10T17:13:13+02:00</time>
      </trkpt>
      <trkpt lat="49.02646" lon="1.82225">
        <ele>101</ele>
        <time>2021-05-10T17:13:18+02:00</time>
      </trkpt>
      <trkpt lat="49.02639" lon="1.82164">
        <ele>97</ele>
        <time>2021-05-10T17:13:23+02:00</time>
      </trkpt>
      <trkpt lat="49.02624" lon="1.821">
        <ele>93</ele>
        <time>2021-05-10T17:13:28+02:00</time>
      </trkpt>
      <trkpt lat="49.02615" lon="1.81993">
        <ele>89</ele>
        <time>2021-05-10T17:13:33+02:00</time>
      </trkpt>
      <trkpt lat="49.02635" lon="1.81955">
        <ele>86</ele>
        <time>2021-05-10T17:13:38+02:00</time>
      </trkpt>
      <trkpt lat="49.02665" lon="1.81912">
        <ele>83</ele>
        <time>2021-05-10T17:13:43+02:00</time>
      </trkpt>
      <trkpt lat="49.02767" lon="1.81941">
        <ele>84</ele>
        <time>2021-05-10T17:13:48+02:00</time>
      </trkpt>
      <trkpt lat="49.02842" lon="1.81929">
        <ele>86</ele>
        <time>2021-05-10T17:13:53+02:00</time>
      </trkpt>
      <trkpt lat="49.02891" lon="1.81943">
        <ele>85</ele>
        <time>2021-05-10T17:13:58+02:00</time>
      </trkpt>
      <trkpt lat="49.0288" lon="1.81911">
        <ele>85</ele>
        <time>2021-05-10T17:14:03+02:00</time>
      </trkpt>
      <trkpt lat="49.02852" lon="1.81849">
        <ele>89</ele>
        <time>2021-05-10T17:14:08+02:00</time>
      </trkpt>
      <trkpt lat="49.02819" lon="1.81825">
        <ele>92</ele>
        <time>2021-05-10T17:14:13+02:00</time>
      </trkpt>
      <trkpt lat="49.02783" lon="1.81789">
        <ele>100</ele>
        <time>2021-05-10T17:14:18+02:00</time>
      </trkpt>
      <trkpt lat="49.02818" lon="1.81766">
        <ele>104</ele>
        <time>2021-05-10T17:14:23+02:00</time>
      </trkpt>
      <trkpt lat="49.02835" lon="1.81715">
        <ele>108</ele>
        <time>2021-05-10T17:14:28+02:00</time>
      </trkpt>
      <trkpt lat="49.02835" lon="1.81668">
        <ele>112</ele>
        <time>2021-05-10T17:14:33+02:00</time>
      </trkpt>
      <trkpt lat="49.02878" lon="1.81588">
        <ele>102</ele>
        <time>2021-05-10T17:14:38+02:00</time>
      </trkpt>
      <trkpt lat="49.0292" lon="1.81511">
        <ele>101</ele>
        <time>2021-05-10T17:14:43+02:00</time>
      </trkpt>
      <trkpt lat="49.02934" lon="1.81519">
        <ele>98</ele>
        <time>2021-05-10T17:14:48+02:00</time>
      </trkpt>
      <trkpt lat="49.02927" lon="1.81587">
        <ele>95</ele>
        <time>2021-05-10T17:14:53+02:00</time>
      </trkpt>
      <trkpt lat="49.02927" lon="1.81632">
        <ele>93</ele>
        <time>2021-05-10T17:14:58+02:00</time>
      </trkpt>
      <trkpt lat="49.02933" lon="1.81653">
        <ele>92</ele>
        <time>2021-05-10T17:15:03+02:00</time>
      </trkpt>
      <trkpt lat="49.02958" lon="1.81675">
        <ele>89</ele>
        <time>2021-05-10T17:15:08+02:00</time>
      </trkpt>
      <trkpt lat="49.02982" lon="1.81688">
        <ele>86</ele>
        <time>2021-05-10T17:15:13+02:00</time>
      </trkpt>
      <trkpt lat="49.03006" lon="1.81624">
        <ele>86</ele>
        <time>2021-05-10T17:15:18+02:00</time>
      </trkpt>
      <trkpt lat="49.03008" lon="1.81582">
        <ele>88</ele>
        <time>2021-05-10T17:15:23+02:00</time>
      </trkpt>
      <trkpt lat="49.03033" lon="1.81583">
        <ele>86</ele>
        <time>2021-05-10T17:15:28+02:00</time>
      </trkpt>
      <trkpt lat="49.03047" lon="1.81591">
        <ele>85</ele>
        <time>2021-05-10T17:15:33+02:00</time>
      </trkpt>
      <trkpt lat="49.03224" lon="1.81766">
        <ele>88</ele>
        <time>2021-05-10T17:15:38+02:00</time>
      </trkpt>
      <trkpt lat="49.03293" lon="1.8164">
        <ele>94</ele>
        <time>2021-05-10T17:15:43+02:00</time>
      </trkpt>
      <trkpt lat="49.03341" lon="1.81642">
        <ele>97</ele>
        <time>2021-05-10T17:15:48+02:00</time>
      </trkpt>
      <trkpt lat="49.03365" lon="1.81613">
        <ele>98</ele>
        <time>2021-05-10T17:15:53+02:00</time>
      </trkpt>
      <trkpt lat="49.03381" lon="1.81606">
        <ele>99</ele>
        <time>2021-05-10T17:15:58+02:00</time>
      </trkpt>
      <trkpt lat="49.03449" lon="1.81618">
        <ele>104</ele>
        <time>2021-05-10T17:16:03+02:00</time>
      </trkpt>
      <trkpt lat="49.03487" lon="1.81607">
        <ele>107</ele>
        <time>2021-05-10T17:16:08+02:00</time>
      </trkpt>
      <trkpt lat="49.03515" lon="1.81582">
        <ele>109</ele>
        <time>2021-05-10T17:16:13+02:00</time>
      </trkpt>
      <trkpt lat="49.03591" lon="1.81463">
        <ele>117</ele>
        <time>2021-05-10T17:16:18+02:00</time>
      </trkpt>
      <trkpt lat="49.0365" lon="1.81403">
        <ele>121</ele>
        <time>2021-05-10T17:16:23+02:00</time>
      </trkpt>
      <trkpt lat="49.03735" lon="1.81322">
        <ele>123</ele>
        <time>2021-05-10T17:16:28+02:00</time>
      </trkpt>
      <trkpt lat="49.03791" lon="1.81288">
        <ele>124</ele>
        <time>2021-05-10T17:16:33+02:00</time>
      </trkpt>
      <trkpt lat="49.03838" lon="1.81272">
        <ele>125</ele>
        <time>2021-05-10T17:16:38+02:00</time>
      </trkpt>
      <trkpt lat="49.03881" lon="1.81242">
        <ele>125</ele>
        <time>2021-05-10T17:16:43+02:00</time>
      </trkpt>
      <trkpt lat="49.0394" lon="1.81185">
        <ele>126</ele>
        <time>2021-05-10T17:16:48+02:00</time>
      </trkpt>
      <trkpt lat="49.03975" lon="1.81156">
        <ele>126</ele>
        <time>2021-05-10T17:16:53+02:00</time>
      </trkpt>
      <trkpt lat="49.03998" lon="1.81156">
        <ele>127</ele>
        <time>2021-05-10T17:16:58+02:00</time>
      </trkpt>
      <trkpt lat="49.04059" lon="1.81204">
        <ele>128</ele>
        <time>2021-05-10T17:17:03+02:00</time>
      </trkpt>
      <trkpt lat="49.04013" lon="1.81289">
        <ele>128</ele>
        <time>2021-05-10T17:17:08+02:00</time>
      </trkpt>
      <trkpt lat="49.03916" lon="1.81467">
        <ele>127</ele>
        <time>2021-05-10T17:17:13+02:00</time>
      </trkpt>
      <trkpt lat="49.03877" lon="1.81609">
        <ele>128</ele>
        <time>2021-05-10T17:17:18+02:00</time>
      </trkpt>
      <trkpt lat="49.03845" lon="1.81708">
        <ele>126</ele>
        <time>2021-05-10T17:17:23+02:00</time>
      </trkpt>
      <trkpt lat="49.0379" lon="1.81829">
        <ele>127</ele>
        <time>2021-05-10T17:17:28+02:00</time>
      </trkpt>
      <trkpt lat="49.03739" lon="1.81952">
        <ele>126</ele>
        <time>2021-05-10T17:17:33+02:00</time>
      </trkpt>
      <trkpt lat="49.03725" lon="1.82053">
        <ele>123</ele>
        <time>2021-05-10T17:17:38+02:00</time>
      </trkpt>
      <trkpt lat="49.03645" lon="1.82371">
        <ele>121</ele>
        <time>2021-05-10T17:17:43+02:00</time>
      </trkpt>
      <trkpt lat="49.03579" lon="1.8259">
        <ele>117</ele>
        <time>2021-05-10T17:17:48+02:00</time>
      </trkpt>
      <trkpt lat="49.03498" lon="1.82882">
        <ele>113</ele>
        <time>2021-05-10T17:17:53+02:00</time>
      </trkpt>
      <trkpt lat="49.03464" lon="1.83007">
        <ele>113</ele>
        <time>2021-05-10T17:17:58+02:00</time>
      </trkpt>
      <trkpt lat="49.03451" lon="1.83077">
        <ele>113</ele>
        <time>2021-05-10T17:18:03+02:00</time>
      </trkpt>
      <trkpt lat="49.03433" lon="1.83119">
        <ele>113</ele>
        <time>2021-05-10T17:18:08+02:00</time>
      </trkpt>
      <trkpt lat="49.03408" lon="1.83227">
        <ele>113</ele>
        <time>2021-05-10T17:18:13+02:00</time>
      </trkpt>
      <trkpt lat="49.03374" lon="1.83399">
        <ele>110</ele>
        <time>2021-05-10T17:18:18+02:00</time>
      </trkpt>
      <trkpt lat="49.03369" lon="1.83444">
        <ele>110</ele>
        <time>2021-05-10T17:18:23+02:00</time>
      </trkpt>
      <trkpt lat="49.03364" lon="1.83547">
        <ele>110</ele>
        <time>2021-05-10T17:18:28+02:00</time>
      </trkpt>
      <trkpt lat="49.03373" lon="1.83612">
        <ele>110</ele>
        <time>2021-05-10T17:18:33+02:00</time>
      </trkpt>
      <trkpt lat="49.03384" lon="1.83709">
        <ele>108</ele>
        <time>2021-05-10T17:18:38+02:00</time>
      </trkpt>
      <trkpt lat="49.03384" lon="1.83775">
        <ele>108</ele>
        <time>2021-05-10T17:18:43+02:00</time>
      </trkpt>
      <trkpt lat="49.0337" lon="1.83886">
        <ele>107</ele>
        <time>2021-05-10T17:18:48+02:00</time>
      </trkpt>
      <trkpt lat="49.03362" lon="1.83979">
        <ele>107</ele>
        <time>2021-05-10T17:18:53+02:00</time>
      </trkpt>
      <trkpt lat="49.03371" lon="1.84025">
        <ele>106</ele>
        <time>2021-05-10T17:18:58+02:00</time>
      </trkpt>
      <trkpt lat="49.03404" lon="1.84095">
        <ele>103</ele>
        <time>2021-05-10T17:19:03+02:00</time>
      </trkpt>
      <trkpt lat="49.03407" lon="1.84137">
        <ele>101</ele>
        <time>2021-05-10T17:19:08+02:00</time>
      </trkpt>
      <trkpt lat="49.03388" lon="1.84219">
        <ele>101</ele>
        <time>2021-05-10T17:19:13+02:00</time>
      </trkpt>
      <trkpt lat="49.03361" lon="1.84305">
        <ele>99</ele>
        <time>2021-05-10T17:19:18+02:00</time>
      </trkpt>
      <trkpt lat="49.03372" lon="1.84379">
        <ele>96</ele>
        <time>2021-05-10T17:19:23+02:00</time>
      </trkpt>
      <trkpt lat="49.03363" lon="1.84473">
        <ele>94</ele>
        <time>2021-05-10T17:19:28+02:00</time>
      </trkpt>
      <trkpt lat="49.03366" lon="1.84634">
        <ele>88</ele>
        <time>2021-05-10T17:19:33+02:00</time>
      </trkpt>
      <trkpt lat="49.03345" lon="1.84731">
        <ele>84</ele>
        <time>2021-05-10T17:19:38+02:00</time>
      </trkpt>
      <trkpt lat="49.03342" lon="1.84715">
        <ele>85</ele>
        <time>2021-05-10T17:19:43+02:00</time>
      </trkpt>
      <trkpt lat="49.03295" lon="1.84717">
        <ele>82</ele>
        <time>2021-05-10T17:19:48+02:00</time>
      </trkpt>
      <trkpt lat="49.03272" lon="1.8469">
        <ele>81</ele>
        <time>2021-05-10T17:19:53+02:00</time>
      </trkpt>
      <trkpt lat="49.03235" lon="1.847">
        <ele>77</ele>
        <time>2021-05-10T17:19:58+02:00</time>
      </trkpt>
      <trkpt lat="49.03209" lon="1.8466">
        <ele>75</ele>
        <time>2021-05-10T17:20:03+02:00</time>
      </trkpt>
      <trkpt lat="49.0315" lon="1.84629">
        <ele>67</ele>
        <time>2021-05-10T17:20:08+02:00</time>
      </trkpt>
      <trkpt lat="49.03109" lon="1.84639">
        <ele>58</ele>
        <time>2021-05-10T17:20:13+02:00</time>
      </trkpt>
      <trkpt lat="49.03077" lon="1.84613">
        <ele>53</ele>
        <time>2021-05-10T17:20:18+02:00</time>
      </trkpt>
      <trkpt lat="49.03071" lon="1.84551">
        <ele>54</ele>
        <time>2021-05-10T17:20:23+02:00</time>
      </trkpt>
      <trkpt lat="49.03032" lon="1.84567">
        <ele>52</ele>
        <time>2021-05-10T17:20:28+02:00</time>
      </trkpt>
      <trkpt lat="49.02986" lon="1.84594">
        <ele>51</ele>
        <time>2021-05-10T17:20:33+02:00</time>
      </trkpt>
      <trkpt lat="49.02958" lon="1.84605">
        <ele>54</ele>
        <time>2021-05-10T17:20:38+02:00</time>
      </trkpt>
      <trkpt lat="49.0296" lon="1.8472">
        <ele>55</ele>
        <time>2021-05-10T17:20:43+02:00</time>
      </trkpt>
      <trkpt lat="49.02961" lon="1.84791">
        <ele>54</ele>
        <time>2021-05-10T17:20:48+02:00</time>
      </trkpt>
      <trkpt lat="49.02934" lon="1.84885">
        <ele>53</ele>
        <time>2021-05-10T17:20:53+02:00</time>
      </trkpt>
      <trkpt lat="49.02907" lon="1.85015">
        <ele>51</ele>
        <time>2021-05-10T17:20:58+02:00</time>
      </trkpt>
      <trkpt lat="49.02883" lon="1.85106">
        <ele>52</ele>
        <time>2021-05-10T17:21:03+02:00</time>
      </trkpt>
      <trkpt lat="49.02866" lon="1.85153">
        <ele>51</ele>
        <time>2021-05-10T17:21:08+02:00</time>
      </trkpt>
      <trkpt lat="49.02852" lon="1.85184">
        <ele>51</ele>
        <time>2021-05-10T17:21:13+02:00</time>
      </trkpt>
      <trkpt lat="49.02875" lon="1.85203">
        <ele>49</ele>
        <time>2021-05-10T17:21:18+02:00</time>
      </trkpt>
      <trkpt lat="49.02867" lon="1.85241">
        <ele>49</ele>
        <time>2021-05-10T17:21:23+02:00</time>
      </trkpt>
      <trkpt lat="49.02863" lon="1.85261">
        <ele>49</ele>
        <time>2021-05-10T17:21:28+02:00</time>
      </trkpt>
      <trkpt lat="49.02872" lon="1.85275">
        <ele>48</ele>
        <time>2021-05-10T17:21:33+02:00</time>
      </trkpt>
    </trkseg>
  </trk>
</gpx>